Time;durP1;ratioP1;P1;durP2;ratioP2;P2;SDS_P1;SDS_P2;PMS_P1;PMS_P2;Temp;Humidity;BMP_temperature;BMP_pressure;BME280_temperature;BME280_humidity;BME280_pressure;Samples;Min_cycle;Max_cycle;Signal;HPM_P1;HPM_P2
2022/11/26 00:01:21;;;;;;;24.77;13.45;;;;;;;1.23;82.98;98331.45;1647532;87;21036;-77
2022/11/26 00:03:50;;;;;;;23.45;13.32;;;;;;;1.20;83.06;98323.56;1628725;87;21055;-77
2022/11/26 00:06:25;;;;;;;24.50;13.05;;;;;;;1.20;83.10;98326.17;1647635;87;21505;-76
2022/11/26 00:08:52;;;;;;;22.87;11.95;;;;;;;1.23;83.20;98324.03;1646635;87;21103;-75
2022/11/26 00:11:18;;;;;;;21.65;12.88;;;;;;;1.26;83.06;98325.39;1622448;88;21485;-75
2022/11/26 00:13:45;;;;;;;25.30;12.85;;;;;;;1.26;83.02;98322.78;1632366;87;21026;-77
2022/11/26 00:16:15;;;;;;;23.60;12.63;;;;;;;1.26;83.02;98317.14;1634914;86;21141;-77
2022/11/26 00:18:42;;;;;;;23.85;12.65;;;;;;;1.28;83.06;98324.97;1624754;87;21062;-76
2022/11/26 00:21:17;;;;;;;21.40;12.10;;;;;;;1.26;83.03;98326.28;1633304;87;21474;-76
2022/11/26 00:23:44;;;;;;;27.58;13.70;;;;;;;1.26;83.06;98322.36;1640572;86;21024;-76
2022/11/26 00:26:19;;;;;;;23.65;12.82;;;;;;;1.29;83.07;98330.22;1616071;88;21082;-77
2022/11/26 00:28:53;;;;;;;21.70;11.70;;;;;;;1.33;83.03;98335.08;1621165;86;21470;-76
2022/11/26 00:31:20;;;;;;;23.95;12.35;;;;;;;1.32;82.95;98334.60;1632642;87;21016;-76
2022/11/26 00:33:47;;;;;;;22.87;12.88;;;;;;;1.33;82.93;98332.47;1612020;88;21068;-76
2022/11/26 00:36:24;;;;;;;20.95;11.12;;;;;;;1.36;83.16;98333.79;1647540;87;21004;-77
2022/11/26 00:39:02;;;;;;;20.48;11.18;;;;;;;1.41;83.39;98332.11;1626831;88;20969;-77
2022/11/26 00:41:37;;;;;;;21.35;11.55;;;;;;;1.49;83.34;98338.73;1647372;87;21064;-75
2022/11/26 00:44:20;;;;;;;22.25;12.35;;;;;;;1.50;83.23;98346.16;1608924;87;21265;-76
2022/11/26 00:46:47;;;;;;;23.07;12.15;;;;;;;1.49;83.16;98338.73;1647397;87;21048;-76
2022/11/26 00:49:15;;;;;;;25.97;13.05;;;;;;;1.53;83.18;98339.67;1627055;88;21047;-76
2022/11/26 00:51:43;;;;;;;26.10;13.55;;;;;;;1.54;83.05;98336.20;1647545;87;21489;-76
2022/11/26 00:54:14;;;;;;;22.60;12.98;;;;;;;1.53;83.04;98342.28;1626965;87;21047;-76
2022/11/26 00:56:40;;;;;;;25.68;13.00;;;;;;;1.55;83.02;98343.17;1647613;87;20968;-77
2022/11/26 00:59:12;;;;;;;25.32;13.20;;;;;;;1.54;82.95;98340.97;1647457;87;21450;-77
2022/11/26 01:01:39;;;;;;;25.68;14.15;;;;;;;1.55;83.10;98347.09;1626876;88;21143;-77
2022/11/26 01:04:05;;;;;;;26.75;15.18;;;;;;;1.53;82.59;98344.45;1627205;87;21019;-76
2022/11/26 01:06:37;;;;;;;28.20;14.63;;;;;;;1.51;82.59;98350.52;1647327;87;21441;-77
2022/11/26 01:09:05;;;;;;;28.60;15.15;;;;;;;1.50;82.64;98350.93;1612423;88;21044;-76
2022/11/26 01:11:31;;;;;;;29.40;16.62;;;;;;;1.52;82.61;98351.84;1596862;90;21033;-76
2022/11/26 01:13:59;;;;;;;26.82;14.68;;;;;;;1.51;82.57;98363.58;1591190;90;21111;-75
2022/11/26 01:16:31;;;;;;;24.25;13.55;;;;;;;1.45;82.51;98353.91;1590259;90;21052;-76
2022/11/26 01:19:01;;;;;;;28.15;14.68;;;;;;;1.37;82.30;98357.73;1575760;90;21076;-76
2022/11/26 01:21:32;;;;;;;24.02;13.55;;;;;;;1.32;82.64;98359.41;1591082;89;21045;-76
2022/11/26 01:23:58;;;;;;;27.22;13.62;;;;;;;1.30;82.85;98359.38;1591267;90;21063;-76
2022/11/26 01:26:30;;;;;;;26.62;15.00;;;;;;;1.33;82.88;98357.27;1591295;90;21080;-76
2022/11/26 01:28:56;;;;;;;27.42;14.10;;;;;;;1.34;82.95;98360.33;1590871;89;21445;-76
2022/11/26 01:31:27;;;;;;;28.32;13.75;;;;;;;1.37;83.09;98364.71;1591237;90;21059;-76
2022/11/26 01:33:54;;;;;;;26.55;13.53;;;;;;;1.41;83.15;98363.90;1591230;90;21434;-77
2022/11/26 01:36:28;;;;;;;25.50;13.95;;;;;;;1.47;83.38;98359.16;1591084;90;21012;-77
2022/11/26 01:39:00;;;;;;;24.00;13.20;;;;;;;1.57;83.44;98364.95;1591323;90;21035;-77
2022/11/26 01:42:15;;;;;;;24.87;13.08;;;;;;;1.60;83.16;98358.88;1591203;90;20992;-77
2022/11/26 01:44:41;;;;;;;26.33;13.58;;;;;;;1.64;83.37;98362.87;1591290;90;21075;-76
2022/11/26 01:47:24;;;;;;;25.10;13.38;;;;;;;1.73;83.43;98361.25;1591273;90;21460;-76
2022/11/26 01:50:32;;;;;;;21.93;12.80;;;;;;;1.69;83.18;98362.50;1591118;90;21032;-76
2022/11/26 01:53:07;;;;;;;25.00;13.45;;;;;;;1.67;83.02;98359.42;1591190;90;21514;-76
2022/11/26 01:55:39;;;;;;;26.17;13.30;;;;;;;1.60;82.97;98355.86;1590987;90;21004;-76
2022/11/26 01:58:11;;;;;;;23.45;13.75;;;;;;;1.55;82.95;98354.51;1591205;90;21020;-76
2022/11/26 02:00:38;;;;;;;23.87;12.82;;;;;;;1.50;82.85;98357.46;1591191;90;21051;-76
2022/11/26 02:03:06;;;;;;;22.40;11.88;;;;;;;1.43;82.72;98360.87;1591108;90;21052;-76
2022/11/26 02:05:38;;;;;;;18.55;11.50;;;;;;;1.41;82.89;98362.59;1591154;90;21532;-76
2022/11/26 02:08:05;;;;;;;21.93;11.70;;;;;;;1.39;82.71;98373.02;1591151;90;21069;-76
2022/11/26 02:10:33;;;;;;;22.52;11.88;;;;;;;1.37;82.65;98377.77;1591229;90;21019;-76
2022/11/26 02:13:00;;;;;;;20.88;10.40;;;;;;;1.35;82.73;98379.47;1592131;88;21067;-76
2022/11/26 02:15:32;;;;;;;21.37;11.78;;;;;;;1.35;82.70;98372.94;1592463;90;21076;-76
2022/11/26 02:18:06;;;;;;;16.70;10.40;;;;;;;1.34;82.62;98372.08;1575750;90;21040;-76
2022/11/26 02:20:55;;;;;;;16.65;9.50;;;;;;;1.31;82.42;98370.30;1577085;89;21122;-76
2022/11/26 02:23:54;;;;;;;19.62;11.22;;;;;;;1.30;82.52;98368.52;1619069;88;21052;-76
2022/11/26 02:26:45;;;;;;;19.32;10.50;;;;;;;1.33;82.51;98371.64;1592552;90;21060;-76
2022/11/26 02:29:29;;;;;;;19.60;11.12;;;;;;;1.32;82.48;98365.94;1636151;86;21021;-76
2022/11/26 02:32:19;;;;;;;16.32;9.68;;;;;;;1.35;82.59;98375.13;1619644;87;21082;-76
2022/11/26 02:35:03;;;;;;;21.20;10.60;;;;;;;1.38;82.61;98371.69;1635453;87;21101;-76
2022/11/26 02:37:51;;;;;;;17.98;10.18;;;;;;;1.35;82.43;98367.72;1634459;87;21072;-75
2022/11/26 02:40:18;;;;;;;19.23;10.75;;;;;;;1.33;82.62;98367.72;1603729;88;21079;-75
2022/11/26 02:42:45;;;;;;;18.85;10.85;;;;;;;1.35;82.53;98366.41;1641495;87;21112;-75
2022/11/26 02:45:23;;;;;;;22.27;11.22;;;;;;;1.33;82.60;98369.02;1632621;87;21053;-76
2022/11/26 02:47:54;;;;;;;20.55;10.35;;;;;;;1.31;82.78;98362.47;1624943;87;21545;-75
2022/11/26 02:50:50;;;;;;;18.75;11.00;;;;;;;1.32;82.64;98355.49;1632597;87;21454;-76
2022/11/26 02:53:20;;;;;;;19.73;11.10;;;;;;;1.33;82.79;98353.77;1628682;87;21473;-75
2022/11/26 02:56:04;;;;;;;22.37;11.80;;;;;;;1.33;82.79;98350.75;1632554;87;21068;-75
2022/11/26 02:58:33;;;;;;;23.12;11.83;;;;;;;1.35;82.81;98358.16;1641802;87;20997;-75
2022/11/26 03:01:04;;;;;;;17.35;10.40;;;;;;;1.31;82.86;98357.66;1632655;88;21099;-75
2022/11/26 03:03:39;;;;;;;17.45;10.58;;;;;;;1.29;83.08;98362.86;1641629;87;21028;-75
2022/11/26 03:06:10;;;;;;;19.50;11.35;;;;;;;1.31;82.91;98355.05;1641606;87;21064;-76
2022/11/26 03:08:37;;;;;;;19.20;10.63;;;;;;;1.27;82.90;98349.33;1632709;88;21005;-76
2022/11/26 03:11:05;;;;;;;18.87;11.08;;;;;;;1.27;83.01;98354.14;1641572;87;21072;-75
2022/11/26 03:13:32;;;;;;;19.48;10.53;;;;;;;1.23;82.79;98350.14;1645413;87;21430;-76
2022/11/26 03:15:58;;;;;;;17.85;10.25;;;;;;;1.17;82.87;98361.40;1626988;88;21032;-75
2022/11/26 03:18:24;;;;;;;20.05;10.93;;;;;;;1.09;83.02;98365.20;1628895;87;20996;-76
2022/11/26 03:20:51;;;;;;;20.90;11.95;;;;;;;1.04;83.10;98366.42;1626859;88;21063;-76
2022/11/26 03:23:17;;;;;;;20.57;10.18;;;;;;;0.97;83.33;98361.09;1647336;87;21035;-75
2022/11/26 03:25:44;;;;;;;20.23;10.45;;;;;;;0.89;83.38;98364.48;1647134;87;21029;-76
2022/11/26 03:28:10;;;;;;;20.25;11.05;;;;;;;0.86;83.26;98366.14;1626932;87;20992;-76
2022/11/26 03:30:37;;;;;;;23.47;11.55;;;;;;;0.84;83.58;98370.48;1647606;87;22146;-75
2022/11/26 03:33:03;;;;;;;19.17;11.43;;;;;;;0.83;83.58;98372.64;1627191;87;21080;-76
2022/11/26 03:35:30;;;;;;;20.45;10.55;;;;;;;0.81;83.52;98380.85;1625155;87;21016;-75
2022/11/26 03:37:56;;;;;;;19.55;10.53;;;;;;;0.79;83.68;98397.38;1627159;87;21092;-75
2022/11/26 03:40:23;;;;;;;17.67;9.80;;;;;;;0.79;83.68;98405.64;1647440;87;21505;-76
2022/11/26 03:42:49;;;;;;;18.25;10.40;;;;;;;0.81;84.07;98405.23;1647464;87;20996;-75
2022/11/26 03:45:16;;;;;;;23.75;12.45;;;;;;;0.82;84.40;98415.25;1627071;87;21438;-76
2022/11/26 03:47:42;;;;;;;21.50;12.50;;;;;;;0.76;84.13;98420.82;1647486;87;21034;-76
2022/11/26 03:50:09;;;;;;;22.90;13.10;;;;;;;0.73;84.06;98419.87;1627112;88;21108;-76
2022/11/26 03:52:36;;;;;;;25.15;12.85;;;;;;;0.73;84.44;98423.78;1647504;86;21020;-76
2022/11/26 03:55:03;;;;;;;24.47;12.63;;;;;;;0.73;84.50;98425.98;1627041;87;21015;-76
2022/11/26 03:57:30;;;;;;;25.80;12.90;;;;;;;0.75;84.45;98426.01;1600008;90;21528;-76
2022/11/26 03:59:56;;;;;;;24.50;15.08;;;;;;;0.69;84.31;98430.69;1647615;87;20981;-76
2022/11/26 04:02:23;;;;;;;25.43;14.18;;;;;;;0.61;84.18;98434.47;1626977;87;21052;-76
2022/11/26 04:04:50;;;;;;;38.55;17.82;;;;;;;0.60;84.47;98431.41;1647261;87;21099;-77
2022/11/26 04:07:16;;;;;;;26.90;14.70;;;;;;;0.55;84.36;98434.78;1626974;87;20980;-76
2022/11/26 04:09:43;;;;;;;27.75;14.98;;;;;;;0.49;84.19;98444.66;1647370;87;21055;-76
2022/11/26 04:12:09;;;;;;;27.37;13.58;;;;;;;0.41;84.09;98446.28;1629613;87;21056;-76
2022/11/26 04:14:36;;;;;;;25.90;13.13;;;;;;;0.39;84.23;98452.77;1632336;87;21371;-77
2022/11/26 04:17:03;;;;;;;26.25;14.13;;;;;;;0.38;84.00;98447.10;1614291;87;21506;-76
2022/11/26 04:19:29;;;;;;;27.20;13.30;;;;;;;0.39;84.40;98442.33;1641705;87;21024;-75
2022/11/26 04:21:56;;;;;;;27.25;14.78;;;;;;;0.42;84.42;98450.64;1632541;88;21375;-76
2022/11/26 04:24:22;;;;;;;25.68;14.03;;;;;;;0.46;84.41;98451.16;1641729;87;21036;-76
2022/11/26 04:26:49;;;;;;;26.52;14.15;;;;;;;0.43;84.24;98453.28;1632699;88;20973;-76
2022/11/26 04:29:16;;;;;;;26.33;13.83;;;;;;;0.43;84.75;98457.60;1641523;87;21081;-76
2022/11/26 04:31:42;;;;;;;24.75;12.95;;;;;;;0.51;84.74;98458.63;1641542;87;21411;-76
2022/11/26 04:34:09;;;;;;;22.42;12.07;;;;;;;0.53;84.72;98463.44;1641809;87;21074;-76
2022/11/26 04:36:35;;;;;;;25.10;12.20;;;;;;;0.56;84.77;98462.61;1632746;87;21016;-75
2022/11/26 04:39:02;;;;;;;21.23;11.43;;;;;;;0.62;84.83;98467.52;1641774;87;20992;-76
2022/11/26 04:41:28;;;;;;;19.27;10.32;;;;;;;0.67;85.13;98461.09;1632783;88;21057;-75
2022/11/26 04:43:55;;;;;;;19.70;10.68;;;;;;;0.67;84.96;98458.48;1641722;87;21463;-75
2022/11/26 04:46:21;;;;;;;22.30;11.88;;;;;;;0.73;84.92;98460.31;1632778;88;20977;-75
2022/11/26 04:48:48;;;;;;;22.52;11.10;;;;;;;0.78;84.85;98467.78;1632777;87;21075;-75
2022/11/26 04:51:14;;;;;;;22.58;11.53;;;;;;;0.78;84.79;98470.39;1641699;87;21423;-76
2022/11/26 04:53:41;;;;;;;19.20;11.25;;;;;;;0.82;84.77;98470.91;1641666;87;21131;-76
2022/11/26 04:56:07;;;;;;;21.05;11.50;;;;;;;0.84;84.80;98465.72;1641508;87;21004;-75
2022/11/26 04:58:34;;;;;;;20.08;10.30;;;;;;;0.86;84.85;98472.72;1641739;87;21458;-76
2022/11/26 05:01:01;;;;;;;21.42;12.18;;;;;;;0.89;85.17;98466.67;1632408;88;21036;-76
2022/11/26 05:03:28;;;;;;;17.40;10.85;;;;;;;0.89;84.77;98464.06;1641785;87;21048;-76
2022/11/26 05:05:54;;;;;;;19.50;10.13;;;;;;;0.83;84.95;98469.19;1641578;87;21013;-76
2022/11/26 05:08:21;;;;;;;17.17;8.18;;;;;;;0.78;84.95;98469.98;1632660;88;21001;-76
2022/11/26 05:10:53;;;;;;;13.75;8.13;;;;;;;0.73;84.73;98462.91;1641666;87;21064;-76
2022/11/26 05:13:20;;;;;;;14.10;7.67;;;;;;;0.63;84.85;98467.97;1641420;87;21410;-76
2022/11/26 05:15:47;;;;;;;13.48;7.60;;;;;;;0.57;85.01;98462.65;1629162;87;21020;-77
2022/11/26 05:18:14;;;;;;;12.95;7.90;;;;;;;0.56;85.02;98472.64;1593795;90;21048;-77
2022/11/26 05:20:41;;;;;;;14.63;7.50;;;;;;;0.51;85.09;98471.23;1616883;88;21036;-76
2022/11/26 05:23:07;;;;;;;12.98;6.67;;;;;;;0.43;85.02;98471.53;1619503;88;21039;-75
2022/11/26 05:25:34;;;;;;;12.03;7.17;;;;;;;0.36;85.15;98471.84;1619583;88;21077;-77
2022/11/26 05:28:00;;;;;;;13.03;6.90;;;;;;;0.32;85.33;98471.31;1619379;88;21474;-76
2022/11/26 05:30:27;;;;;;;12.93;6.92;;;;;;;0.26;85.83;98474.67;1619329;89;21051;-77
2022/11/26 05:32:53;;;;;;;12.60;7.10;;;;;;;0.22;85.64;98468.98;1619424;89;21133;-75
2022/11/26 05:35:20;;;;;;;17.65;7.70;;;;;;;0.21;85.72;98476.31;1619349;88;21039;-75
2022/11/26 05:37:46;;;;;;;11.60;7.22;;;;;;;0.22;85.94;98481.12;1619430;88;21052;-76
2022/11/26 05:40:14;;;;;;;14.47;8.08;;;;;;;0.17;86.14;98481.00;1619245;88;21055;-76
2022/11/26 05:42:40;;;;;;;15.58;7.83;;;;;;;0.19;86.43;98481.05;1619347;87;21465;-76
2022/11/26 05:45:07;;;;;;;13.95;8.73;;;;;;;0.13;86.78;98477.91;1619354;88;21032;-76
2022/11/26 05:47:34;;;;;;;15.40;8.53;;;;;;;0.11;86.75;98478.28;1619291;89;20993;-76
2022/11/26 05:50:01;;;;;;;17.15;9.95;;;;;;;0.06;86.68;98483.83;1619452;88;21024;-76
2022/11/26 05:52:28;;;;;;;16.48;9.08;;;;;;;0.07;86.85;98479.06;1619299;88;21477;-74
2022/11/26 05:54:54;;;;;;;18.87;10.28;;;;;;;0.03;86.79;98486.39;1619386;88;21075;-75
2022/11/26 05:57:20;;;;;;;17.82;10.10;;;;;;;-0.01;87.03;98478.91;1619353;89;21076;-75
2022/11/26 05:59:48;;;;;;;18.90;9.95;;;;;;;-0.03;87.31;98488.00;1619346;88;21024;-76
2022/11/26 06:02:14;;;;;;;19.80;10.40;;;;;;;-0.02;86.86;98486.28;1619226;88;21016;-76
2022/11/26 06:04:42;;;;;;;20.00;10.85;;;;;;;0.01;87.15;98488.07;1619498;88;21036;-76
2022/11/26 06:07:09;;;;;;;20.20;10.58;;;;;;;0.01;86.98;98485.47;1619295;88;21090;-77
2022/11/26 06:09:36;;;;;;;22.05;11.45;;;;;;;0.04;87.05;98486.40;1619212;88;21076;-76
2022/11/26 06:12:04;;;;;;;23.57;12.75;;;;;;;0.13;86.95;98494.86;1619317;88;21083;-76
2022/11/26 06:14:30;;;;;;;23.60;11.95;;;;;;;0.19;87.46;98492.36;1625951;86;21589;-75
2022/11/26 06:16:56;;;;;;;19.80;11.53;;;;;;;0.22;87.32;98498.06;1608670;87;21086;-75
2022/11/26 06:19:23;;;;;;;30.70;13.40;;;;;;;0.29;86.79;98501.23;1627200;88;21472;-75
2022/11/26 06:21:49;;;;;;;24.30;11.93;;;;;;;0.33;86.63;98500.45;1627028;88;21131;-75
2022/11/26 06:24:16;;;;;;;25.48;13.75;;;;;;;0.35;86.64;98502.68;1627092;88;20980;-76
2022/11/26 06:26:42;;;;;;;28.40;14.23;;;;;;;0.41;86.52;98512.33;1627167;88;21075;-76
2022/11/26 06:29:09;;;;;;;24.32;13.93;;;;;;;0.44;86.56;98514.12;1626950;88;21023;-75
2022/11/26 06:31:35;;;;;;;28.45;15.20;;;;;;;0.47;86.60;98507.67;1627117;88;20992;-76
2022/11/26 06:34:02;;;;;;;28.85;15.15;;;;;;;0.48;86.48;98512.92;1627030;88;21056;-76
2022/11/26 06:36:28;;;;;;;29.67;15.13;;;;;;;0.52;86.39;98526.48;1626998;88;20996;-76
2022/11/26 06:38:55;;;;;;;28.85;15.48;;;;;;;0.50;86.39;98525.55;1627242;88;20980;-75
2022/11/26 06:41:21;;;;;;;31.73;15.63;;;;;;;0.49;86.41;98528.13;1627223;88;21438;-75
2022/11/26 06:43:48;;;;;;;27.70;15.63;;;;;;;0.47;86.31;98525.92;1626895;87;21107;-76
2022/11/26 06:46:15;;;;;;;25.00;14.23;;;;;;;0.46;86.42;98525.47;1627127;88;21107;-76
2022/11/26 06:48:41;;;;;;;28.65;15.55;;;;;;;0.50;86.53;98526.85;1627081;88;21015;-76
2022/11/26 06:51:12;;;;;;;29.60;15.23;;;;;;;0.55;86.32;98533.89;1627009;88;21078;-76
2022/11/26 06:53:39;;;;;;;32.10;15.68;;;;;;;0.61;86.48;98534.89;1627043;88;21032;-75
2022/11/26 06:56:10;;;;;;;30.72;15.95;;;;;;;0.71;86.60;98532.47;1626979;88;21406;-76
2022/11/26 06:58:37;;;;;;;31.25;15.03;;;;;;;0.76;86.25;98535.63;1626980;88;21406;-76
2022/11/26 07:01:15;;;;;;;28.35;15.15;;;;;;;0.78;86.04;98542.15;1627100;88;21004;-76
2022/11/26 07:03:41;;;;;;;31.12;16.07;;;;;;;0.77;85.80;98545.20;1627177;88;21012;-76
2022/11/26 07:06:18;;;;;;;32.60;17.50;;;;;;;0.77;85.71;98549.53;1626924;88;21016;-76
2022/11/26 07:08:45;;;;;;;34.85;17.55;;;;;;;0.75;85.71;98546.03;1626213;88;21502;-76
2022/11/26 07:11:13;;;;;;;30.37;16.55;;;;;;;0.76;85.72;98548.67;1626897;88;21029;-77
2022/11/26 07:13:39;;;;;;;36.45;16.52;;;;;;;0.78;85.76;98548.27;1623594;87;21060;-77
2022/11/26 07:16:07;;;;;;;33.08;16.25;;;;;;;0.83;85.86;98553.55;1602815;89;20973;-76
2022/11/26 07:18:34;;;;;;;44.53;23.18;;;;;;;0.90;86.05;98555.44;1592310;90;21530;-77
2022/11/26 07:21:08;;;;;;;44.93;22.65;;;;;;;0.99;85.77;98550.80;1592482;90;21063;-76
2022/11/26 07:23:35;;;;;;;29.20;15.65;;;;;;;1.06;85.81;98554.41;1614523;89;21000;-77
2022/11/26 07:26:03;;;;;;;26.40;13.83;;;;;;;1.15;85.81;98554.56;1617963;89;21031;-76
2022/11/26 07:28:31;;;;;;;25.43;12.70;;;;;;;1.25;85.75;98567.78;1617937;89;21478;-77
2022/11/26 07:31:05;;;;;;;22.58;12.55;;;;;;;1.30;85.61;98568.30;1617979;88;21043;-76
2022/11/26 07:33:31;;;;;;;25.20;13.22;;;;;;;1.37;85.60;98568.42;1617891;89;21056;-76
2022/11/26 07:36:01;;;;;;;21.93;11.83;;;;;;;1.44;85.24;98571.57;1618023;88;21012;-76
2022/11/26 07:38:30;;;;;;;19.27;11.05;;;;;;;1.49;84.76;98581.67;1617097;89;21810;-76
2022/11/26 07:41:06;;;;;;;18.67;11.12;;;;;;;1.48;84.63;98577.30;1617700;89;21044;-77
2022/11/26 07:43:38;;;;;;;23.57;12.20;;;;;;;1.52;84.36;98586.06;1617935;89;21079;-76
2022/11/26 07:46:07;;;;;;;19.50;12.43;;;;;;;1.54;84.17;98586.98;1617977;89;21012;-77
2022/11/26 07:48:37;;;;;;;24.35;12.45;;;;;;;1.53;83.66;98589.16;1617787;89;21000;-77
2022/11/26 07:51:03;;;;;;;23.20;12.37;;;;;;;1.54;83.85;98589.15;1617862;89;21469;-75
2022/11/26 07:53:33;;;;;;;22.75;13.28;;;;;;;1.57;84.03;98593.13;1617704;89;21565;-76
2022/11/26 07:56:04;;;;;;;21.60;12.03;;;;;;;1.60;84.20;98600.14;1617924;88;21056;-75
2022/11/26 07:58:32;;;;;;;21.60;12.28;;;;;;;1.62;84.25;98601.03;1617901;88;21426;-75
2022/11/26 08:01:08;;;;;;;26.10;14.05;;;;;;;1.68;84.05;98596.34;1617879;89;21024;-75
2022/11/26 08:03:40;;;;;;;25.30;13.98;;;;;;;1.74;84.34;98597.73;1614178;89;21069;-76
2022/11/26 08:06:10;;;;;;;25.40;14.10;;;;;;;1.80;84.27;98595.66;1617989;89;21016;-76
2022/11/26 08:08:38;;;;;;;30.62;15.55;;;;;;;1.86;84.34;98597.05;1617958;89;21036;-76
2022/11/26 08:11:19;;;;;;;27.13;15.20;;;;;;;1.90;84.17;98596.25;1618031;88;21060;-76
2022/11/26 08:13:47;;;;;;;23.10;14.40;;;;;;;1.93;84.28;98601.53;1617358;87;21533;-76
2022/11/26 08:16:14;;;;;;;30.30;15.40;;;;;;;1.96;84.14;98598.94;1619318;88;21047;-76
2022/11/26 08:18:41;;;;;;;25.65;14.47;;;;;;;1.99;84.14;98603.34;1619447;88;21056;-76
2022/11/26 08:21:09;;;;;;;26.82;14.55;;;;;;;2.02;84.10;98604.70;1619276;89;21040;-76
2022/11/26 08:23:37;;;;;;;25.15;14.30;;;;;;;2.04;84.07;98602.11;1619349;88;21016;-76
2022/11/26 08:26:08;;;;;;;27.15;13.58;;;;;;;2.07;84.12;98603.45;1619392;88;21080;-76
2022/11/26 08:28:35;;;;;;;24.20;13.53;;;;;;;2.08;83.98;98610.46;1619240;88;21012;-76
2022/11/26 08:31:05;;;;;;;21.82;13.20;;;;;;;2.09;84.05;98610.91;1619376;89;20981;-76
2022/11/26 08:33:33;;;;;;;44.10;22.90;;;;;;;2.13;84.13;98608.79;1619542;89;21036;-76
2022/11/26 08:36:00;;;;;;;27.40;15.15;;;;;;;2.17;84.05;98618.44;1619304;88;21063;-76
2022/11/26 08:38:29;;;;;;;24.67;12.88;;;;;;;2.22;84.18;98620.69;1619399;88;21100;-76
2022/11/26 08:41:06;;;;;;;26.75;13.48;;;;;;;2.28;84.25;98621.63;1619403;89;21019;-76
2022/11/26 08:43:37;;;;;;;19.65;12.23;;;;;;;2.34;84.09;98622.59;1619303;88;21369;-76
2022/11/26 08:46:04;;;;;;;25.80;12.80;;;;;;;2.38;84.12;98624.38;1619417;88;21087;-76
2022/11/26 08:48:32;;;;;;;23.95;12.15;;;;;;;2.41;83.96;98620.92;1619523;88;21438;-76
2022/11/26 08:51:06;;;;;;;18.50;11.90;;;;;;;2.48;84.01;98630.63;1619447;89;21039;-76
2022/11/26 08:53:35;;;;;;;26.35;13.60;;;;;;;2.54;84.10;98627.22;1618632;88;21119;-76
2022/11/26 08:56:06;;;;;;;23.77;13.58;;;;;;;2.56;83.95;98628.10;1613500;88;21066;-76
2022/11/26 08:58:36;;;;;;;22.80;13.22;;;;;;;2.60;84.01;98630.33;1604325;87;21044;-76
2022/11/26 09:01:19;;;;;;;25.17;13.98;;;;;;;2.66;83.95;98630.42;1600568;90;21067;-75
2022/11/26 09:03:51;;;;;;;26.52;14.20;;;;;;;2.70;83.86;98628.27;1641735;87;21087;-76
2022/11/26 09:06:20;;;;;;;21.45;12.58;;;;;;;2.74;83.81;98631.38;1641633;87;21176;-76
2022/11/26 09:11:36;;;;;;;27.62;13.88;;;;;;;2.84;83.50;98631.48;1623889;87;21111;-75
2022/11/26 09:14:03;;;;;;;25.05;14.00;;;;;;;2.84;83.37;98632.80;1632625;87;21521;-76
2022/11/26 09:16:31;;;;;;;24.00;13.43;;;;;;;2.85;83.34;98630.20;1614175;88;21003;-76
2022/11/26 09:19:02;;;;;;;24.52;14.07;;;;;;;2.88;83.19;98622.81;1632589;88;21029;-76
2022/11/26 09:21:30;;;;;;;22.67;13.08;;;;;;;2.89;83.29;98618.02;1632640;87;21459;-76
2022/11/26 09:23:56;;;;;;;29.90;15.00;;;;;;;2.90;83.12;98621.08;1605395;89;21021;-76
2022/11/26 09:26:24;;;;;;;22.95;13.08;;;;;;;2.93;82.87;98621.55;1605402;89;21442;-76
2022/11/26 09:28:51;;;;;;;26.25;13.98;;;;;;;2.94;83.02;98619.41;1593829;90;21011;-77
2022/11/26 09:31:19;;;;;;;29.90;15.10;;;;;;;2.97;82.83;98622.92;1592574;90;21076;-75
2022/11/26 09:33:46;;;;;;;26.62;14.40;;;;;;;2.99;82.75;98619.88;1619202;89;21477;-76
2022/11/26 09:36:15;;;;;;;24.98;14.15;;;;;;;3.00;82.65;98624.25;1619317;88;21055;-76
2022/11/26 09:38:42;;;;;;;29.20;15.10;;;;;;;3.00;82.57;98624.70;1619231;89;21039;-76
2022/11/26 09:41:44;;;;;;;33.48;14.73;;;;;;;2.98;82.33;98629.02;1619149;89;21009;-76
2022/11/26 09:44:28;;;;;;;26.77;15.88;;;;;;;3.02;82.75;98623.85;1619335;88;21056;-76
2022/11/26 09:47:15;;;;;;;30.40;15.63;;;;;;;3.06;82.66;98635.69;1619366;89;21437;-76
2022/11/26 09:49:59;;;;;;;26.20;15.78;;;;;;;3.10;82.62;98637.45;1632299;88;21002;-76
2022/11/26 09:52:31;;;;;;;26.82;15.40;;;;;;;3.11;82.35;98633.99;1635641;87;21016;-77
2022/11/26 09:55:04;;;;;;;29.45;16.65;;;;;;;3.12;82.18;98637.91;1635404;88;21463;-76
2022/11/26 09:57:36;;;;;;;28.65;16.27;;;;;;;3.17;82.51;98642.77;1634703;87;21048;-76
2022/11/26 10:00:08;;;;;;;29.80;16.82;;;;;;;3.24;82.53;98650.71;1635187;87;21064;-76
2022/11/26 10:02:37;;;;;;;30.05;16.73;;;;;;;3.28;82.53;98638.95;1630577;88;20993;-76
2022/11/26 10:05:05;;;;;;;28.45;16.90;;;;;;;3.35;82.70;98641.22;1632770;88;21522;-76
2022/11/26 10:08:15;;;;;;;30.30;16.73;;;;;;;3.43;82.46;98638.66;1632496;88;21455;-76
2022/11/26 10:11:22;;;;;;;31.45;17.48;;;;;;;3.50;82.39;98639.61;1631578;88;21056;-76
2022/11/26 10:14:42;;;;;;;29.67;18.32;;;;;;;3.52;82.20;98636.55;1632408;87;21056;-76
2022/11/26 10:17:23;;;;;;;26.73;16.62;;;;;;;3.56;82.08;98640.55;1615286;88;21081;-76
2022/11/26 10:20:27;;;;;;;28.95;18.07;;;;;;;3.64;82.05;98641.03;1632560;87;21044;-76
2022/11/26 10:23:14;;;;;;;23.15;14.18;;;;;;;3.66;80.84;98644.56;1632600;87;21017;-77
2022/11/26 10:25:51;;;;;;;21.48;13.15;;;;;;;3.66;80.35;98649.80;1632590;88;21041;-78
2022/11/26 10:28:29;;;;;;;19.75;11.28;;;;;;;3.68;80.65;98651.99;1632421;88;21095;-75
2022/11/26 10:30:59;;;;;;;20.70;12.23;;;;;;;3.72;80.07;98652.47;1632285;86;21025;-76
2022/11/26 10:33:34;;;;;;;20.45;12.45;;;;;;;3.76;80.12;98652.06;1632038;88;21033;-75
2022/11/26 10:36:04;;;;;;;22.22;12.47;;;;;;;3.83;80.46;98644.70;1614041;88;21124;-75
2022/11/26 10:38:30;;;;;;;20.97;11.20;;;;;;;3.91;80.32;98651.32;1632546;87;21074;-76
2022/11/26 10:40:57;;;;;;;18.12;10.40;;;;;;;3.98;80.38;98650.94;1632602;87;21447;-76
2022/11/26 10:43:24;;;;;;;15.05;8.85;;;;;;;4.06;80.40;98656.68;1632389;88;21068;-76
2022/11/26 10:45:54;;;;;;;15.58;9.93;;;;;;;4.11;79.94;98658.01;1632465;88;21475;-78
2022/11/26 10:48:28;;;;;;;22.52;12.43;;;;;;;4.18;79.79;98657.63;1632565;88;21080;-76
2022/11/26 10:51:18;;;;;;;23.60;13.98;;;;;;;4.23;79.37;98642.37;1632728;87;21081;-77
2022/11/26 10:54:03;;;;;;;20.10;10.65;;;;;;;4.28;79.68;98651.56;1632637;87;21049;-77
2022/11/26 10:56:43;;;;;;;17.37;10.40;;;;;;;4.36;79.87;98649.88;1592354;89;21117;-76
2022/11/26 10:59:28;;;;;;;15.68;10.00;;;;;;;4.44;79.60;98649.06;1628119;88;21009;-76
2022/11/26 11:02:00;;;;;;;17.60;10.82;;;;;;;4.51;79.43;98648.21;1632331;88;21076;-77
2022/11/26 11:04:32;;;;;;;17.82;11.35;;;;;;;4.57;79.01;98654.80;1632627;88;21001;-76
2022/11/26 11:06:58;;;;;;;19.45;12.15;;;;;;;4.61;79.14;98652.64;1631906;88;21073;-77
2022/11/26 11:09:30;;;;;;;17.32;10.60;;;;;;;4.62;78.48;98653.53;1632612;88;20986;-76
2022/11/26 11:12:22;;;;;;;15.90;10.58;;;;;;;4.62;78.25;98653.08;1632457;88;21077;-77
2022/11/26 11:14:50;;;;;;;11.93;7.78;;;;;;;4.65;78.60;98655.30;1612658;88;21049;-76
2022/11/26 11:17:30;;;;;;;14.00;8.18;;;;;;;4.67;77.49;98653.11;1616497;88;21033;-76
2022/11/26 11:20:00;;;;;;;16.50;8.38;;;;;;;4.70;78.07;98649.17;1632620;88;21073;-80
2022/11/26 11:22:27;;;;;;;10.18;6.92;;;;;;;4.69;76.98;98653.13;1632579;88;21023;-76
2022/11/26 11:24:58;;;;;;;13.53;6.87;;;;;;;4.72;77.24;98649.19;1632489;88;21001;-75
2022/11/26 11:27:40;;;;;;;14.07;7.92;;;;;;;4.75;77.02;98638.70;1631888;87;21498;-75
2022/11/26 11:30:27;;;;;;;19.00;9.83;;;;;;;4.78;76.89;98645.30;1632144;88;21057;-76
2022/11/26 11:33:09;;;;;;;19.30;10.13;;;;;;;4.78;75.97;98639.16;1632027;88;21181;-75
2022/11/26 11:35:36;;;;;;;18.87;9.90;;;;;;;4.72;76.48;98638.68;1604504;88;20990;-76
2022/11/26 11:38:03;;;;;;;16.40;9.58;;;;;;;4.74;75.99;98637.81;1632186;88;21037;-76
2022/11/26 11:40:36;;;;;;;17.92;9.83;;;;;;;4.74;75.29;98634.33;1613830;88;21525;-75
2022/11/26 11:43:05;;;;;;;15.00;9.10;;;;;;;4.73;74.15;98628.19;1630766;87;21080;-76
2022/11/26 11:45:39;;;;;;;16.93;10.23;;;;;;;4.73;75.09;98641.31;1631092;87;21021;-76
2022/11/26 11:48:17;;;;;;;17.35;10.28;;;;;;;4.75;74.95;98636.97;1631221;87;21032;-76